sensor_id;sensor_type;location;lat;lon;timestamp;P1;durP1;ratioP1;P2;durP2;ratioP2
55497;SDS011;41357;52.806;18.268;2023-03-07T00:00:34;43.78;;;17.67;;
55497;SDS011;41357;52.806;18.268;2023-03-07T00:03:00;54.65;;;20.80;;
55497;SDS011;41357;52.806;18.268;2023-03-07T00:05:26;68.40;;;21.58;;
55497;SDS011;41357;52.806;18.268;2023-03-07T00:07:52;87.60;;;25.08;;
55497;SDS011;41357;52.806;18.268;2023-03-07T00:10:19;108.93;;;33.60;;
55497;SDS011;41357;52.806;18.268;2023-03-07T00:12:45;75.35;;;29.05;;
55497;SDS011;41357;52.806;18.268;2023-03-07T00:15:11;67.63;;;23.20;;
55497;SDS011;41357;52.806;18.268;2023-03-07T00:17:37;67.53;;;23.73;;
55497;SDS011;41357;52.806;18.268;2023-03-07T00:20:04;73.10;;;19.60;;
55497;SDS011;41357;52.806;18.268;2023-03-07T00:22:31;95.97;;;27.27;;
55497;SDS011;41357;52.806;18.268;2023-03-07T00:24:57;61.83;;;20.17;;
55497;SDS011;41357;52.806;18.268;2023-03-07T00:27:24;52.88;;;19.98;;
55497;SDS011;41357;52.806;18.268;2023-03-07T00:29:50;70.90;;;24.38;;
55497;SDS011;41357;52.806;18.268;2023-03-07T00:32:16;50.97;;;18.42;;
55497;SDS011;41357;52.806;18.268;2023-03-07T00:34:42;52.00;;;19.10;;
55497;SDS011;41357;52.806;18.268;2023-03-07T00:37:08;53.63;;;21.58;;
55497;SDS011;41357;52.806;18.268;2023-03-07T00:39:34;64.10;;;22.08;;
55497;SDS011;41357;52.806;18.268;2023-03-07T00:42:00;56.35;;;22.70;;
55497;SDS011;41357;52.806;18.268;2023-03-07T00:44:26;46.97;;;20.02;;
55497;SDS011;41357;52.806;18.268;2023-03-07T00:46:54;53.25;;;20.65;;
55497;SDS011;41357;52.806;18.268;2023-03-07T00:49:21;54.40;;;19.25;;
55497;SDS011;41357;52.806;18.268;2023-03-07T00:51:47;49.40;;;21.20;;
55497;SDS011;41357;52.806;18.268;2023-03-07T00:54:13;56.15;;;21.13;;
55497;SDS011;41357;52.806;18.268;2023-03-07T00:56:39;54.25;;;18.02;;
55497;SDS011;41357;52.806;18.268;2023-03-07T00:59:06;46.67;;;19.60;;
55497;SDS011;41357;52.806;18.268;2023-03-07T01:01:32;44.03;;;17.55;;
55497;SDS011;41357;52.806;18.268;2023-03-07T01:03:58;50.47;;;20.35;;
55497;SDS011;41357;52.806;18.268;2023-03-07T01:06:25;50.78;;;19.90;;
55497;SDS011;41357;52.806;18.268;2023-03-07T01:08:51;43.28;;;17.75;;
55497;SDS011;41357;52.806;18.268;2023-03-07T01:11:18;48.53;;;17.27;;
55497;SDS011;41357;52.806;18.268;2023-03-07T01:13:44;44.70;;;18.63;;
55497;SDS011;41357;52.806;18.268;2023-03-07T01:18:37;49.75;;;18.33;;
55497;SDS011;41357;52.806;18.268;2023-03-07T01:21:10;58.05;;;20.40;;
55497;SDS011;41357;52.806;18.268;2023-03-07T01:23:36;50.63;;;19.80;;
55497;SDS011;41357;52.806;18.268;2023-03-07T01:26:02;62.85;;;22.80;;
55497;SDS011;41357;52.806;18.268;2023-03-07T01:28:28;52.03;;;19.92;;
55497;SDS011;41357;52.806;18.268;2023-03-07T01:30:57;44.10;;;19.05;;
55497;SDS011;41357;52.806;18.268;2023-03-07T01:33:24;38.75;;;19.15;;
55497;SDS011;41357;52.806;18.268;2023-03-07T01:35:50;47.05;;;18.80;;
55497;SDS011;41357;52.806;18.268;2023-03-07T01:38:16;46.60;;;18.30;;
55497;SDS011;41357;52.806;18.268;2023-03-07T01:40:42;46.90;;;17.60;;
55497;SDS011;41357;52.806;18.268;2023-03-07T01:43:41;46.92;;;18.45;;
55497;SDS011;41357;52.806;18.268;2023-03-07T01:48:47;39.95;;;17.15;;
55497;SDS011;41357;52.806;18.268;2023-03-07T01:51:15;42.15;;;16.05;;
55497;SDS011;41357;52.806;18.268;2023-03-07T01:53:42;44.65;;;17.17;;
55497;SDS011;41357;52.806;18.268;2023-03-07T01:56:08;35.35;;;15.73;;
55497;SDS011;41357;52.806;18.268;2023-03-07T01:58:35;47.45;;;17.60;;
55497;SDS011;41357;52.806;18.268;2023-03-07T02:01:03;44.25;;;17.42;;
55497;SDS011;41357;52.806;18.268;2023-03-07T02:03:36;48.33;;;17.88;;
55497;SDS011;41357;52.806;18.268;2023-03-07T02:06:08;41.72;;;16.90;;
55497;SDS011;41357;52.806;18.268;2023-03-07T02:08:34;44.78;;;17.92;;
55497;SDS011;41357;52.806;18.268;2023-03-07T02:11:02;39.97;;;17.55;;
55497;SDS011;41357;52.806;18.268;2023-03-07T02:13:28;51.90;;;20.70;;
55497;SDS011;41357;52.806;18.268;2023-03-07T02:15:54;51.92;;;19.65;;
55497;SDS011;41357;52.806;18.268;2023-03-07T02:18:23;50.40;;;20.23;;
55497;SDS011;41357;52.806;18.268;2023-03-07T02:26:11;52.95;;;18.65;;
55497;SDS011;41357;52.806;18.268;2023-03-07T02:31:06;56.88;;;19.60;;
55497;SDS011;41357;52.806;18.268;2023-03-07T02:33:32;60.92;;;21.35;;
55497;SDS011;41357;52.806;18.268;2023-03-07T02:36:01;56.20;;;20.55;;
55497;SDS011;41357;52.806;18.268;2023-03-07T02:38:27;58.45;;;23.05;;
55497;SDS011;41357;52.806;18.268;2023-03-07T02:40:54;68.82;;;21.48;;
55497;SDS011;41357;52.806;18.268;2023-03-07T02:43:21;60.90;;;22.90;;
55497;SDS011;41357;52.806;18.268;2023-03-07T02:45:47;56.40;;;20.33;;
55497;SDS011;41357;52.806;18.268;2023-03-07T02:48:14;52.33;;;22.70;;
55497;SDS011;41357;52.806;18.268;2023-03-07T02:50:40;51.35;;;20.92;;
55497;SDS011;41357;52.806;18.268;2023-03-07T02:53:06;69.85;;;21.77;;
55497;SDS011;41357;52.806;18.268;2023-03-07T02:55:32;51.00;;;19.70;;
55497;SDS011;41357;52.806;18.268;2023-03-07T02:57:58;48.70;;;20.25;;
55497;SDS011;41357;52.806;18.268;2023-03-07T03:00:24;56.35;;;20.70;;
55497;SDS011;41357;52.806;18.268;2023-03-07T03:02:51;65.70;;;22.08;;
55497;SDS011;41357;52.806;18.268;2023-03-07T03:05:17;61.75;;;21.35;;
55497;SDS011;41357;52.806;18.268;2023-03-07T03:07:43;69.70;;;22.77;;
55497;SDS011;41357;52.806;18.268;2023-03-07T03:10:09;58.63;;;21.75;;
55497;SDS011;41357;52.806;18.268;2023-03-07T03:12:35;67.65;;;24.38;;
55497;SDS011;41357;52.806;18.268;2023-03-07T03:15:01;52.88;;;21.58;;
55497;SDS011;41357;52.806;18.268;2023-03-07T03:17:27;74.90;;;23.00;;
55497;SDS011;41357;52.806;18.268;2023-03-07T03:19:54;81.53;;;24.55;;
55497;SDS011;41357;52.806;18.268;2023-03-07T03:22:20;67.30;;;22.10;;
55497;SDS011;41357;52.806;18.268;2023-03-07T03:24:46;88.80;;;25.50;;
55497;SDS011;41357;52.806;18.268;2023-03-07T03:27:12;99.88;;;22.95;;
55497;SDS011;41357;52.806;18.268;2023-03-07T03:29:39;100.20;;;25.58;;
55497;SDS011;41357;52.806;18.268;2023-03-07T03:32:05;75.65;;;21.95;;
55497;SDS011;41357;52.806;18.268;2023-03-07T03:34:31;104.65;;;24.38;;
55497;SDS011;41357;52.806;18.268;2023-03-07T03:36:58;90.45;;;23.95;;
55497;SDS011;41357;52.806;18.268;2023-03-07T03:39:24;76.70;;;23.92;;
55497;SDS011;41357;52.806;18.268;2023-03-07T03:41:50;91.03;;;22.10;;
55497;SDS011;41357;52.806;18.268;2023-03-07T03:44:16;57.65;;;19.10;;
55497;SDS011;41357;52.806;18.268;2023-03-07T03:46:42;73.35;;;20.42;;
55497;SDS011;41357;52.806;18.268;2023-03-07T03:49:10;69.53;;;20.60;;
55497;SDS011;41357;52.806;18.268;2023-03-07T03:51:36;78.57;;;21.50;;
55497;SDS011;41357;52.806;18.268;2023-03-07T03:54:02;71.15;;;21.88;;
55497;SDS011;41357;52.806;18.268;2023-03-07T03:56:29;83.47;;;26.83;;
55497;SDS011;41357;52.806;18.268;2023-03-07T03:58:55;76.00;;;25.25;;
55497;SDS011;41357;52.806;18.268;2023-03-07T04:01:22;69.70;;;22.73;;
55497;SDS011;41357;52.806;18.268;2023-03-07T04:03:50;69.00;;;22.65;;
55497;SDS011;41357;52.806;18.268;2023-03-07T04:06:20;62.55;;;17.63;;
55497;SDS011;41357;52.806;18.268;2023-03-07T04:08:47;59.42;;;19.15;;
55497;SDS011;41357;52.806;18.268;2023-03-07T04:11:13;47.85;;;14.02;;
55497;SDS011;41357;52.806;18.268;2023-03-07T04:13:39;72.18;;;17.77;;
55497;SDS011;41357;52.806;18.268;2023-03-07T04:16:06;53.65;;;19.73;;
55497;SDS011;41357;52.806;18.268;2023-03-07T04:18:32;40.47;;;16.35;;
55497;SDS011;41357;52.806;18.268;2023-03-07T04:20:59;53.22;;;16.90;;
55497;SDS011;41357;52.806;18.268;2023-03-07T04:23:26;40.63;;;14.73;;
55497;SDS011;41357;52.806;18.268;2023-03-07T04:25:53;49.42;;;16.70;;
55497;SDS011;41357;52.806;18.268;2023-03-07T04:28:20;37.17;;;12.80;;
55497;SDS011;41357;52.806;18.268;2023-03-07T04:30:47;34.70;;;14.10;;
55497;SDS011;41357;52.806;18.268;2023-03-07T04:33:20;50.50;;;21.27;;
55497;SDS011;41357;52.806;18.268;2023-03-07T04:35:46;29.08;;;12.77;;
55497;SDS011;41357;52.806;18.268;2023-03-07T04:38:13;28.52;;;11.68;;
55497;SDS011;41357;52.806;18.268;2023-03-07T04:40:39;44.35;;;14.02;;
55497;SDS011;41357;52.806;18.268;2023-03-07T04:43:05;28.75;;;10.75;;
55497;SDS011;41357;52.806;18.268;2023-03-07T04:45:32;38.13;;;17.10;;
55497;SDS011;41357;52.806;18.268;2023-03-07T04:47:59;36.40;;;15.35;;
55497;SDS011;41357;52.806;18.268;2023-03-07T04:50:25;36.17;;;13.85;;
55497;SDS011;41357;52.806;18.268;2023-03-07T04:52:51;31.63;;;12.70;;
55497;SDS011;41357;52.806;18.268;2023-03-07T04:55:17;64.13;;;20.60;;
55497;SDS011;41357;52.806;18.268;2023-03-07T04:57:43;42.83;;;16.27;;
55497;SDS011;41357;52.806;18.268;2023-03-07T05:00:11;50.95;;;14.65;;
55497;SDS011;41357;52.806;18.268;2023-03-07T05:02:37;49.85;;;19.02;;
55497;SDS011;41357;52.806;18.268;2023-03-07T05:05:03;41.47;;;14.02;;
55497;SDS011;41357;52.806;18.268;2023-03-07T05:07:30;44.42;;;14.75;;
55497;SDS011;41357;52.806;18.268;2023-03-07T05:09:56;55.38;;;17.08;;
55497;SDS011;41357;52.806;18.268;2023-03-07T05:12:22;30.95;;;12.63;;
55497;SDS011;41357;52.806;18.268;2023-03-07T05:14:48;49.05;;;18.95;;
55497;SDS011;41357;52.806;18.268;2023-03-07T05:17:15;47.53;;;16.50;;
55497;SDS011;41357;52.806;18.268;2023-03-07T05:19:41;45.47;;;13.93;;
55497;SDS011;41357;52.806;18.268;2023-03-07T05:22:07;63.50;;;14.73;;
55497;SDS011;41357;52.806;18.268;2023-03-07T05:24:34;41.80;;;16.60;;
55497;SDS011;41357;52.806;18.268;2023-03-07T05:27:00;47.95;;;14.90;;
55497;SDS011;41357;52.806;18.268;2023-03-07T05:29:26;45.72;;;15.15;;
55497;SDS011;41357;52.806;18.268;2023-03-07T05:31:52;53.80;;;16.58;;
55497;SDS011;41357;52.806;18.268;2023-03-07T05:34:18;31.80;;;11.10;;
55497;SDS011;41357;52.806;18.268;2023-03-07T05:36:45;53.65;;;16.50;;
55497;SDS011;41357;52.806;18.268;2023-03-07T05:39:12;57.15;;;19.85;;
55497;SDS011;41357;52.806;18.268;2023-03-07T05:41:39;40.05;;;14.32;;
55497;SDS011;41357;52.806;18.268;2023-03-07T05:44:06;34.88;;;12.55;;
55497;SDS011;41357;52.806;18.268;2023-03-07T05:46:32;52.65;;;18.90;;
55497;SDS011;41357;52.806;18.268;2023-03-07T05:48:58;68.53;;;23.15;;
55497;SDS011;41357;52.806;18.268;2023-03-07T05:51:24;72.53;;;22.58;;
55497;SDS011;41357;52.806;18.268;2023-03-07T05:53:50;65.03;;;24.25;;
55497;SDS011;41357;52.806;18.268;2023-03-07T05:56:16;51.75;;;18.23;;
55497;SDS011;41357;52.806;18.268;2023-03-07T05:58:42;68.00;;;21.30;;
55497;SDS011;41357;52.806;18.268;2023-03-07T06:01:08;59.80;;;21.00;;
55497;SDS011;41357;52.806;18.268;2023-03-07T06:03:34;88.25;;;26.00;;
55497;SDS011;41357;52.806;18.268;2023-03-07T06:06:00;79.05;;;25.60;;
55497;SDS011;41357;52.806;18.268;2023-03-07T06:08:27;76.63;;;24.52;;
55497;SDS011;41357;52.806;18.268;2023-03-07T06:10:53;67.82;;;21.48;;
55497;SDS011;41357;52.806;18.268;2023-03-07T06:13:20;46.10;;;17.35;;
55497;SDS011;41357;52.806;18.268;2023-03-07T06:15:50;48.30;;;16.23;;
55497;SDS011;41357;52.806;18.268;2023-03-07T06:18:16;46.03;;;18.15;;
55497;SDS011;41357;52.806;18.268;2023-03-07T06:20:43;65.60;;;20.13;;
55497;SDS011;41357;52.806;18.268;2023-03-07T06:23:09;52.88;;;17.17;;
55497;SDS011;41357;52.806;18.268;2023-03-07T06:25:35;90.10;;;28.55;;
55497;SDS011;41357;52.806;18.268;2023-03-07T06:28:01;64.95;;;24.25;;
55497;SDS011;41357;52.806;18.268;2023-03-07T06:30:28;61.33;;;22.67;;
55497;SDS011;41357;52.806;18.268;2023-03-07T06:32:54;47.78;;;17.70;;
55497;SDS011;41357;52.806;18.268;2023-03-07T06:35:20;40.83;;;16.85;;
55497;SDS011;41357;52.806;18.268;2023-03-07T06:37:46;49.72;;;16.73;;
55497;SDS011;41357;52.806;18.268;2023-03-07T06:40:12;46.70;;;17.65;;
55497;SDS011;41357;52.806;18.268;2023-03-07T06:42:38;43.20;;;17.95;;
55497;SDS011;41357;52.806;18.268;2023-03-07T06:45:04;51.80;;;18.38;;
55497;SDS011;41357;52.806;18.268;2023-03-07T06:47:31;45.40;;;16.02;;
55497;SDS011;41357;52.806;18.268;2023-03-07T06:49:57;50.92;;;18.13;;
55497;SDS011;41357;52.806;18.268;2023-03-07T06:52:23;63.22;;;19.40;;
55497;SDS011;41357;52.806;18.268;2023-03-07T06:54:49;53.58;;;16.92;;
55497;SDS011;41357;52.806;18.268;2023-03-07T06:57:15;43.65;;;16.52;;
55497;SDS011;41357;52.806;18.268;2023-03-07T06:59:41;66.88;;;19.17;;
55497;SDS011;41357;52.806;18.268;2023-03-07T07:02:09;65.45;;;19.95;;
55497;SDS011;41357;52.806;18.268;2023-03-07T07:04:36;62.78;;;20.10;;
55497;SDS011;41357;52.806;18.268;2023-03-07T07:07:02;50.03;;;18.70;;
55497;SDS011;41357;52.806;18.268;2023-03-07T07:09:28;58.13;;;22.70;;
55497;SDS011;41357;52.806;18.268;2023-03-07T07:11:54;80.70;;;23.27;;
55497;SDS011;41357;52.806;18.268;2023-03-07T07:14:20;75.95;;;25.52;;
55497;SDS011;41357;52.806;18.268;2023-03-07T07:16:47;57.88;;;20.70;;
55497;SDS011;41357;52.806;18.268;2023-03-07T07:19:13;69.03;;;21.42;;
55497;SDS011;41357;52.806;18.268;2023-03-07T07:21:39;63.75;;;20.77;;
55497;SDS011;41357;52.806;18.268;2023-03-07T07:24:05;62.50;;;22.05;;
55497;SDS011;41357;52.806;18.268;2023-03-07T07:26:31;66.88;;;25.40;;
55497;SDS011;41357;52.806;18.268;2023-03-07T07:28:58;65.40;;;19.38;;
55497;SDS011;41357;52.806;18.268;2023-03-07T07:31:24;73.70;;;24.00;;
55497;SDS011;41357;52.806;18.268;2023-03-07T07:33:50;69.97;;;21.13;;
55497;SDS011;41357;52.806;18.268;2023-03-07T07:36:16;79.72;;;23.83;;
55497;SDS011;41357;52.806;18.268;2023-03-07T07:38:42;70.55;;;23.08;;
55497;SDS011;41357;52.806;18.268;2023-03-07T07:41:08;85.47;;;23.10;;
55497;SDS011;41357;52.806;18.268;2023-03-07T07:43:34;44.50;;;17.17;;
55497;SDS011;41357;52.806;18.268;2023-03-07T07:46:03;77.25;;;22.10;;
55497;SDS011;41357;52.806;18.268;2023-03-07T07:48:30;80.32;;;27.48;;
55497;SDS011;41357;52.806;18.268;2023-03-07T07:51:02;91.63;;;27.35;;
55497;SDS011;41357;52.806;18.268;2023-03-07T07:53:29;62.78;;;22.25;;
55497;SDS011;41357;52.806;18.268;2023-03-07T07:55:55;59.72;;;19.27;;
55497;SDS011;41357;52.806;18.268;2023-03-07T07:58:21;73.78;;;21.85;;
55497;SDS011;41357;52.806;18.268;2023-03-07T08:00:47;78.85;;;22.40;;
55497;SDS011;41357;52.806;18.268;2023-03-07T08:03:14;72.00;;;21.77;;
55497;SDS011;41357;52.806;18.268;2023-03-07T08:05:43;94.05;;;25.02;;
55497;SDS011;41357;52.806;18.268;2023-03-07T08:08:12;57.63;;;20.83;;
55497;SDS011;41357;52.806;18.268;2023-03-07T08:10:38;77.50;;;28.02;;
55497;SDS011;41357;52.806;18.268;2023-03-07T08:13:07;88.20;;;25.83;;
55497;SDS011;41357;52.806;18.268;2023-03-07T08:15:33;72.20;;;23.67;;
55497;SDS011;41357;52.806;18.268;2023-03-07T08:18:00;66.72;;;22.58;;
55497;SDS011;41357;52.806;18.268;2023-03-07T08:20:26;70.10;;;23.45;;
55497;SDS011;41357;52.806;18.268;2023-03-07T08:22:52;62.88;;;20.58;;
55497;SDS011;41357;52.806;18.268;2023-03-07T08:25:19;82.93;;;25.10;;
55497;SDS011;41357;52.806;18.268;2023-03-07T08:27:46;79.32;;;25.88;;
55497;SDS011;41357;52.806;18.268;2023-03-07T08:30:17;58.55;;;19.35;;
55497;SDS011;41357;52.806;18.268;2023-03-07T08:32:43;78.10;;;26.77;;
55497;SDS011;41357;52.806;18.268;2023-03-07T08:35:09;83.35;;;25.00;;
55497;SDS011;41357;52.806;18.268;2023-03-07T08:37:35;78.38;;;26.50;;
55497;SDS011;41357;52.806;18.268;2023-03-07T08:40:02;81.85;;;25.52;;
55497;SDS011;41357;52.806;18.268;2023-03-07T08:42:28;69.90;;;26.25;;
55497;SDS011;41357;52.806;18.268;2023-03-07T08:44:54;67.00;;;21.30;;
55497;SDS011;41357;52.806;18.268;2023-03-07T08:47:20;60.30;;;22.85;;
55497;SDS011;41357;52.806;18.268;2023-03-07T08:49:47;68.35;;;23.02;;
55497;SDS011;41357;52.806;18.268;2023-03-07T08:52:13;70.75;;;25.20;;
55497;SDS011;41357;52.806;18.268;2023-03-07T08:54:39;71.28;;;23.42;;
55497;SDS011;41357;52.806;18.268;2023-03-07T08:57:05;60.15;;;22.38;;
55497;SDS011;41357;52.806;18.268;2023-03-07T08:59:31;54.22;;;20.35;;
55497;SDS011;41357;52.806;18.268;2023-03-07T09:01:57;61.25;;;21.60;;
55497;SDS011;41357;52.806;18.268;2023-03-07T09:04:23;53.13;;;21.48;;
55497;SDS011;41357;52.806;18.268;2023-03-07T09:06:49;48.78;;;17.05;;
55497;SDS011;41357;52.806;18.268;2023-03-07T09:09:16;50.22;;;18.10;;
55497;SDS011;41357;52.806;18.268;2023-03-07T09:11:42;57.95;;;19.50;;
55497;SDS011;41357;52.806;18.268;2023-03-07T09:14:08;46.92;;;17.55;;
55497;SDS011;41357;52.806;18.268;2023-03-07T09:16:34;52.83;;;19.25;;
55497;SDS011;41357;52.806;18.268;2023-03-07T09:19:00;55.72;;;21.67;;
55497;SDS011;41357;52.806;18.268;2023-03-07T09:21:26;58.55;;;22.33;;
55497;SDS011;41357;52.806;18.268;2023-03-07T09:23:53;49.42;;;20.40;;
55497;SDS011;41357;52.806;18.268;2023-03-07T09:26:19;54.65;;;22.15;;
55497;SDS011;41357;52.806;18.268;2023-03-07T09:28:45;48.67;;;18.75;;
55497;SDS011;41357;52.806;18.268;2023-03-07T09:31:12;58.58;;;23.60;;
55497;SDS011;41357;52.806;18.268;2023-03-07T09:33:39;48.78;;;21.02;;
55497;SDS011;41357;52.806;18.268;2023-03-07T09:36:05;59.45;;;24.23;;
55497;SDS011;41357;52.806;18.268;2023-03-07T09:38:32;53.47;;;22.58;;
55497;SDS011;41357;52.806;18.268;2023-03-07T09:41:45;76.63;;;28.80;;
55497;SDS011;41357;52.806;18.268;2023-03-07T09:51:52;75.72;;;32.13;;
55497;SDS011;41357;52.806;18.268;2023-03-07T09:54:24;59.90;;;22.98;;
55497;SDS011;41357;52.806;18.268;2023-03-07T09:56:58;70.68;;;28.77;;
55497;SDS011;41357;52.806;18.268;2023-03-07T09:59:32;51.70;;;21.70;;
55497;SDS011;41357;52.806;18.268;2023-03-07T10:02:03;49.65;;;21.67;;
55497;SDS011;41357;52.806;18.268;2023-03-07T10:04:33;57.10;;;20.95;;
55497;SDS011;41357;52.806;18.268;2023-03-07T10:07:03;70.90;;;27.67;;
55497;SDS011;41357;52.806;18.268;2023-03-07T10:09:30;65.72;;;27.27;;
55497;SDS011;41357;52.806;18.268;2023-03-07T10:17:38;57.03;;;25.65;;
55497;SDS011;41357;52.806;18.268;2023-03-07T10:27:09;76.75;;;32.10;;
55497;SDS011;41357;52.806;18.268;2023-03-07T10:34:52;53.35;;;22.83;;
55497;SDS011;41357;52.806;18.268;2023-03-07T10:37:20;55.33;;;24.05;;
55497;SDS011;41357;52.806;18.268;2023-03-07T10:39:51;52.20;;;22.73;;
55497;SDS011;41357;52.806;18.268;2023-03-07T10:42:18;54.60;;;23.20;;
55497;SDS011;41357;52.806;18.268;2023-03-07T10:44:45;56.45;;;22.65;;
55497;SDS011;41357;52.806;18.268;2023-03-07T10:47:25;61.00;;;23.25;;
55497;SDS011;41357;52.806;18.268;2023-03-07T10:50:05;31.17;;;15.82;;
55497;SDS011;41357;52.806;18.268;2023-03-07T10:52:39;50.50;;;21.60;;
55497;SDS011;41357;52.806;18.268;2023-03-07T10:57:50;50.88;;;23.00;;
55497;SDS011;41357;52.806;18.268;2023-03-07T11:00:16;55.15;;;24.83;;
55497;SDS011;41357;52.806;18.268;2023-03-07T11:02:46;47.45;;;21.65;;
55497;SDS011;41357;52.806;18.268;2023-03-07T11:07:57;57.28;;;29.60;;
55497;SDS011;41357;52.806;18.268;2023-03-07T11:10:26;54.70;;;22.95;;
55497;SDS011;41357;52.806;18.268;2023-03-07T11:12:57;47.83;;;22.15;;
55497;SDS011;41357;52.806;18.268;2023-03-07T11:15:23;50.05;;;19.20;;
55497;SDS011;41357;52.806;18.268;2023-03-07T11:17:51;56.05;;;23.05;;
55497;SDS011;41357;52.806;18.268;2023-03-07T11:20:19;59.67;;;26.52;;
55497;SDS011;41357;52.806;18.268;2023-03-07T11:22:45;50.33;;;19.30;;
55497;SDS011;41357;52.806;18.268;2023-03-07T11:27:39;38.92;;;17.02;;
55497;SDS011;41357;52.806;18.268;2023-03-07T11:32:46;43.13;;;19.13;;
55497;SDS011;41357;52.806;18.268;2023-03-07T11:35:18;37.25;;;17.42;;
55497;SDS011;41357;52.806;18.268;2023-03-07T11:42:46;31.15;;;13.45;;
55497;SDS011;41357;52.806;18.268;2023-03-07T11:45:30;28.92;;;13.43;;
55497;SDS011;41357;52.806;18.268;2023-03-07T11:48:09;29.55;;;13.43;;
55497;SDS011;41357;52.806;18.268;2023-03-07T11:50:38;35.88;;;15.10;;
55497;SDS011;41357;52.806;18.268;2023-03-07T12:00:56;28.48;;;13.65;;
55497;SDS011;41357;52.806;18.268;2023-03-07T12:24:18;29.40;;;12.10;;
55497;SDS011;41357;52.806;18.268;2023-03-07T12:26:50;32.28;;;14.05;;
55497;SDS011;41357;52.806;18.268;2023-03-07T12:29:30;26.92;;;13.02;;
55497;SDS011;41357;52.806;18.268;2023-03-07T12:31:58;30.23;;;14.73;;
55497;SDS011;41357;52.806;18.268;2023-03-07T12:36:59;29.42;;;15.13;;
55497;SDS011;41357;52.806;18.268;2023-03-07T12:39:30;31.55;;;14.73;;
55497;SDS011;41357;52.806;18.268;2023-03-07T12:55:13;30.20;;;13.07;;
55497;SDS011;41357;52.806;18.268;2023-03-07T12:57:41;34.15;;;14.32;;
55497;SDS011;41357;52.806;18.268;2023-03-07T13:00:09;32.05;;;14.23;;
55497;SDS011;41357;52.806;18.268;2023-03-07T13:02:38;31.00;;;14.30;;
55497;SDS011;41357;52.806;18.268;2023-03-07T13:05:11;26.98;;;12.68;;
55497;SDS011;41357;52.806;18.268;2023-03-07T13:07:41;23.73;;;13.27;;
55497;SDS011;41357;52.806;18.268;2023-03-07T13:10:08;28.80;;;13.93;;
55497;SDS011;41357;52.806;18.268;2023-03-07T13:15:06;19.38;;;9.70;;
55497;SDS011;41357;52.806;18.268;2023-03-07T13:17:55;25.13;;;12.57;;
55497;SDS011;41357;52.806;18.268;2023-03-07T13:20:36;32.83;;;15.32;;
55497;SDS011;41357;52.806;18.268;2023-03-07T13:23:11;27.83;;;12.93;;
55497;SDS011;41357;52.806;18.268;2023-03-07T13:25:43;35.13;;;15.00;;
55497;SDS011;41357;52.806;18.268;2023-03-07T13:33:42;29.42;;;14.00;;
55497;SDS011;41357;52.806;18.268;2023-03-07T13:38:53;38.38;;;17.23;;
55497;SDS011;41357;52.806;18.268;2023-03-07T13:44:10;34.10;;;15.13;;
55497;SDS011;41357;52.806;18.268;2023-03-07T13:46:50;32.55;;;15.40;;
55497;SDS011;41357;52.806;18.268;2023-03-07T13:49:34;31.08;;;14.68;;
55497;SDS011;41357;52.806;18.268;2023-03-07T13:52:21;33.00;;;15.98;;
55497;SDS011;41357;52.806;18.268;2023-03-07T13:54:47;29.02;;;14.15;;
55497;SDS011;41357;52.806;18.268;2023-03-07T13:57:18;31.58;;;14.07;;
55497;SDS011;41357;52.806;18.268;2023-03-07T13:59:48;30.90;;;15.00;;
55497;SDS011;41357;52.806;18.268;2023-03-07T14:02:15;32.50;;;15.07;;
55497;SDS011;41357;52.806;18.268;2023-03-07T14:04:42;26.50;;;12.90;;
55497;SDS011;41357;52.806;18.268;2023-03-07T14:07:19;36.28;;;16.02;;
55497;SDS011;41357;52.806;18.268;2023-03-07T14:09:47;36.10;;;14.70;;
55497;SDS011;41357;52.806;18.268;2023-03-07T14:15:11;34.13;;;15.20;;
55497;SDS011;41357;52.806;18.268;2023-03-07T14:25:45;36.60;;;18.17;;
55497;SDS011;41357;52.806;18.268;2023-03-07T14:30:52;38.80;;;19.08;;
55497;SDS011;41357;52.806;18.268;2023-03-07T14:33:20;43.58;;;21.98;;
55497;SDS011;41357;52.806;18.268;2023-03-07T14:35:46;43.70;;;20.35;;
55497;SDS011;41357;52.806;18.268;2023-03-07T14:38:16;42.67;;;20.75;;
55497;SDS011;41357;52.806;18.268;2023-03-07T14:43:37;34.25;;;15.98;;
55497;SDS011;41357;52.806;18.268;2023-03-07T14:46:16;24.83;;;12.60;;
55497;SDS011;41357;52.806;18.268;2023-03-07T14:51:28;36.10;;;17.27;;
55497;SDS011;41357;52.806;18.268;2023-03-07T14:53:57;34.08;;;18.23;;
55497;SDS011;41357;52.806;18.268;2023-03-07T14:56:29;32.33;;;15.43;;
55497;SDS011;41357;52.806;18.268;2023-03-07T14:58:57;39.47;;;18.65;;
55497;SDS011;41357;52.806;18.268;2023-03-07T15:01:28;44.17;;;19.17;;
55497;SDS011;41357;52.806;18.268;2023-03-07T15:03:55;32.88;;;15.52;;
55497;SDS011;41357;52.806;18.268;2023-03-07T15:06:22;28.25;;;14.90;;
55497;SDS011;41357;52.806;18.268;2023-03-07T15:09:30;39.60;;;17.73;;
55497;SDS011;41357;52.806;18.268;2023-03-07T15:15:06;36.40;;;17.63;;
55497;SDS011;41357;52.806;18.268;2023-03-07T15:17:39;34.25;;;16.05;;
55497;SDS011;41357;52.806;18.268;2023-03-07T15:20:18;55.92;;;23.02;;
55497;SDS011;41357;52.806;18.268;2023-03-07T15:22:46;39.30;;;18.88;;
55497;SDS011;41357;52.806;18.268;2023-03-07T15:25:19;29.95;;;15.13;;
55497;SDS011;41357;52.806;18.268;2023-03-07T15:27:47;27.05;;;13.80;;
55497;SDS011;41357;52.806;18.268;2023-03-07T15:30:26;47.40;;;22.98;;
55497;SDS011;41357;52.806;18.268;2023-03-07T15:35:38;72.38;;;30.63;;
55497;SDS011;41357;52.806;18.268;2023-03-07T15:38:13;51.50;;;27.38;;
55497;SDS011;41357;52.806;18.268;2023-03-07T15:40:39;40.40;;;18.25;;
55497;SDS011;41357;52.806;18.268;2023-03-07T15:46:06;60.67;;;28.63;;
55497;SDS011;41357;52.806;18.268;2023-03-07T15:50:59;99.70;;;35.95;;
55497;SDS011;41357;52.806;18.268;2023-03-07T15:53:31;118.90;;;41.30;;
55497;SDS011;41357;52.806;18.268;2023-03-07T15:56:03;92.30;;;38.72;;
55497;SDS011;41357;52.806;18.268;2023-03-07T15:58:30;90.07;;;38.97;;
55497;SDS011;41357;52.806;18.268;2023-03-07T16:03:36;87.18;;;43.53;;
55497;SDS011;41357;52.806;18.268;2023-03-07T16:08:57;98.15;;;42.95;;
55497;SDS011;41357;52.806;18.268;2023-03-07T16:11:23;75.82;;;31.58;;
55497;SDS011;41357;52.806;18.268;2023-03-07T16:13:50;59.03;;;26.77;;
55497;SDS011;41357;52.806;18.268;2023-03-07T16:18:43;106.60;;;49.22;;
55497;SDS011;41357;52.806;18.268;2023-03-07T16:21:12;64.57;;;33.20;;
55497;SDS011;41357;52.806;18.268;2023-03-07T16:23:39;59.30;;;27.30;;
55497;SDS011;41357;52.806;18.268;2023-03-07T16:26:05;56.25;;;24.70;;
55497;SDS011;41357;52.806;18.268;2023-03-07T16:28:32;60.55;;;24.42;;
55497;SDS011;41357;52.806;18.268;2023-03-07T16:30:58;59.33;;;27.45;;
55497;SDS011;41357;52.806;18.268;2023-03-07T16:33:24;39.55;;;19.02;;
55497;SDS011;41357;52.806;18.268;2023-03-07T16:35:50;38.70;;;18.55;;
55497;SDS011;41357;52.806;18.268;2023-03-07T16:38:16;78.38;;;35.55;;
55497;SDS011;41357;52.806;18.268;2023-03-07T16:40:43;42.05;;;19.65;;
55497;SDS011;41357;52.806;18.268;2023-03-07T16:45:55;38.83;;;18.80;;